Time;durP1;ratioP1;P1;durP2;ratioP2;P2;SDS_P1;SDS_P2;PMS_P1;PMS_P2;Temp;Humidity;BMP_temperature;BMP_pressure;BME280_temperature;BME280_humidity;BME280_pressure;Samples;Min_cycle;Max_cycle;Signal;HPM_P1;HPM_P2
2023/07/09 00:01:44;;;;;;;3.08;2.17;;;18.70;96.70;;;;;;5054103;28;20216;-82
2023/07/09 00:04:11;;;;;;;5.93;2.20;;;18.60;96.80;;;;;;5054246;28;20320;-82
2023/07/09 00:06:38;;;;;;;2.88;2.22;;;18.60;96.80;;;;;;5054807;28;20229;-83
2023/07/09 00:09:05;;;;;;;4.25;2.20;;;18.50;96.90;;;;;;5051720;28;20714;-84
2023/07/09 00:11:32;;;;;;;3.13;2.22;;;18.50;96.90;;;;;;5054486;28;20751;-83
2023/07/09 00:14:00;;;;;;;2.97;2.00;;;18.50;96.90;;;;;;5047747;28;20244;-83
2023/07/09 00:16:27;;;;;;;3.42;1.88;;;18.40;97.00;;;;;;5051734;28;20250;-82
2023/07/09 00:18:54;;;;;;;4.38;2.40;;;18.40;97.10;;;;;;5055485;28;20219;-83
2023/07/09 00:21:22;;;;;;;3.80;2.40;;;18.40;97.10;;;;;;5053074;28;20230;-82
2023/07/09 00:23:49;;;;;;;2.55;2.13;;;18.30;97.20;;;;;;5049276;28;20247;-83
2023/07/09 00:26:20;;;;;;;3.63;2.40;;;18.30;97.10;;;;;;5048527;28;20230;-82
2023/07/09 00:28:47;;;;;;;4.05;2.15;;;18.30;97.30;;;;;;5049439;28;20212;-82
2023/07/09 00:31:17;;;;;;;3.60;2.13;;;18.20;97.30;;;;;;5048090;28;20220;-84
2023/07/09 00:33:45;;;;;;;3.90;2.10;;;18.20;97.50;;;;;;5049897;28;20664;-81
2023/07/09 00:36:15;;;;;;;2.72;2.25;;;18.20;97.20;;;;;;5045650;28;20220;-81
2023/07/09 00:38:47;;;;;;;4.05;2.10;;;18.10;97.40;;;;;;5045061;28;20227;-82
2023/07/09 00:41:18;;;;;;;3.45;1.98;;;18.10;97.40;;;;;;5042699;28;20311;-80
2023/07/09 00:43:46;;;;;;;2.65;2.10;;;18.10;97.50;;;;;;5049788;28;20266;-80
2023/07/09 00:47:00;;;;;;;3.05;2.20;;;18.10;97.60;;;;;;5044329;28;20303;-80
2023/07/09 00:49:32;;;;;;;4.28;2.33;;;18.00;97.80;;;;;;5041169;28;20219;-82
2023/07/09 00:52:03;;;;;;;2.95;2.38;;;18.00;97.60;;;;;;5046493;28;20247;-80
2023/07/09 00:54:38;;;;;;;4.93;2.05;;;18.00;97.70;;;;;;5043515;28;20220;-81
2023/07/09 00:57:10;;;;;;;4.45;2.60;;;17.90;97.80;;;;;;5058970;28;20318;-81
2023/07/09 00:59:38;;;;;;;3.47;2.28;;;17.90;97.80;;;;;;5046507;28;20220;-79
2023/07/09 01:02:08;;;;;;;4.28;2.67;;;17.80;97.70;;;;;;5042510;28;20223;-79
2023/07/09 01:04:39;;;;;;;3.88;2.45;;;17.80;97.80;;;;;;5046092;28;20224;-79
2023/07/09 01:07:06;;;;;;;2.60;2.00;;;17.80;97.70;;;;;;5043609;28;20220;-79
2023/07/09 01:09:35;;;;;;;3.13;2.25;;;17.70;97.70;;;;;;5049328;28;20338;-80
2023/07/09 01:12:10;;;;;;;2.35;2.03;;;17.70;97.80;;;;;;5044273;28;20220;-79
2023/07/09 01:14:39;;;;;;;2.58;1.98;;;17.70;98.00;;;;;;5045240;28;20295;-79
2023/07/09 01:17:11;;;;;;;3.47;2.53;;;17.60;97.80;;;;;;5047933;28;20228;-79
2023/07/09 01:19:42;;;;;;;2.30;2.08;;;17.60;98.00;;;;;;5046280;28;20225;-79
2023/07/09 01:22:12;;;;;;;2.47;2.15;;;17.60;98.00;;;;;;5060908;28;20220;-79
2023/07/09 01:24:57;;;;;;;3.83;2.30;;;17.50;98.50;;;;;;5045738;28;20307;-79
2023/07/09 01:27:27;;;;;;;3.53;2.30;;;17.50;98.10;;;;;;5040021;28;20236;-79
2023/07/09 01:29:54;;;;;;;4.25;2.65;;;17.50;98.00;;;;;;5044512;28;20311;-79
2023/07/09 01:32:22;;;;;;;3.35;2.22;;;17.40;97.90;;;;;;5046523;28;20251;-79
2023/07/09 01:34:52;;;;;;;4.78;2.50;;;17.40;97.90;;;;;;5060782;28;20219;-79
2023/07/09 01:37:23;;;;;;;4.60;2.47;;;17.40;97.90;;;;;;5043879;28;20216;-79
2023/07/09 01:39:52;;;;;;;6.00;2.50;;;17.30;98.00;;;;;;5043545;28;20220;-79
2023/07/09 01:42:21;;;;;;;3.97;2.45;;;17.30;97.90;;;;;;5044521;28;20278;-79
2023/07/09 01:44:49;;;;;;;3.03;2.20;;;17.30;98.00;;;;;;5020642;28;20221;-79
2023/07/09 01:47:15;;;;;;;3.15;2.47;;;17.20;98.00;;;;;;5041539;28;20288;-79
2023/07/09 01:49:46;;;;;;;5.18;2.13;;;17.20;98.10;;;;;;5026797;28;20643;-79
2023/07/09 01:52:16;;;;;;;2.88;2.20;;;17.20;98.10;;;;;;5024484;28;20710;-79
2023/07/09 01:54:49;;;;;;;2.95;2.20;;;17.20;98.10;;;;;;5030502;28;20279;-80
2023/07/09 01:57:22;;;;;;;3.95;2.40;;;17.10;98.00;;;;;;5025737;28;20308;-81
2023/07/09 01:59:50;;;;;;;4.07;2.50;;;17.10;98.00;;;;;;5019374;28;20225;-80
2023/07/09 02:02:19;;;;;;;4.07;2.50;;;17.10;98.00;;;;;;5026448;28;20239;-80
2023/07/09 02:04:47;;;;;;;3.92;2.60;;;17.00;98.10;;;;;;5027267;28;20221;-80
2023/07/09 02:07:14;;;;;;;2.85;2.50;;;17.00;98.20;;;;;;5023324;28;20224;-81
2023/07/09 02:09:42;;;;;;;2.90;2.15;;;17.00;98.20;;;;;;5026840;28;20231;-83
2023/07/09 02:12:11;;;;;;;3.60;2.28;;;17.00;98.20;;;;;;5017805;28;20261;-81
2023/07/09 02:14:39;;;;;;;3.65;2.10;;;16.90;98.40;;;;;;5021475;28;20240;-81
2023/07/09 02:17:06;;;;;;;3.72;2.40;;;16.90;98.30;;;;;;5019670;28;20217;-80
2023/07/09 02:19:33;;;;;;;4.10;2.22;;;16.90;98.40;;;;;;5026252;28;20227;-80
2023/07/09 02:22:00;;;;;;;3.53;2.28;;;16.80;98.40;;;;;;5026175;28;20380;-79
2023/07/09 02:24:27;;;;;;;3.17;2.20;;;16.80;98.40;;;;;;5029448;28;20783;-79
2023/07/09 02:26:54;;;;;;;2.85;2.20;;;16.70;98.50;;;;;;5028611;28;20232;-80
2023/07/09 02:29:23;;;;;;;6.43;2.40;;;16.70;98.60;;;;;;5023784;28;20231;-80
2023/07/09 02:31:51;;;;;;;4.20;2.63;;;16.70;98.70;;;;;;5023237;28;20300;-80
2023/07/09 02:34:18;;;;;;;2.72;2.22;;;16.70;98.70;;;;;;5026339;28;20275;-80
2023/07/09 02:36:45;;;;;;;3.83;2.50;;;16.60;98.70;;;;;;5027127;28;20734;-79
2023/07/09 02:39:12;;;;;;;3.35;2.28;;;16.60;98.70;;;;;;5023041;28;20247;-79
2023/07/09 02:41:39;;;;;;;5.20;2.72;;;16.60;98.70;;;;;;5027039;28;20296;-80
2023/07/09 02:44:09;;;;;;;4.00;2.65;;;16.60;98.80;;;;;;5025372;28;20219;-80
2023/07/09 02:46:38;;;;;;;2.85;2.38;;;16.50;98.90;;;;;;5027244;28;20220;-80
2023/07/09 02:49:06;;;;;;;3.55;2.20;;;16.50;98.90;;;;;;5015776;28;20236;-80
2023/07/09 02:51:34;;;;;;;3.60;2.65;;;16.50;99.20;;;;;;5021292;28;20224;-81
2023/07/09 02:54:02;;;;;;;3.05;2.60;;;16.50;99.00;;;;;;5021671;28;20225;-80
2023/07/09 02:56:30;;;;;;;3.53;2.65;;;16.40;99.00;;;;;;5024615;28;20217;-80
2023/07/09 02:58:57;;;;;;;3.55;2.40;;;16.40;99.10;;;;;;5020204;28;20248;-80
2023/07/09 03:01:24;;;;;;;2.58;2.35;;;16.40;99.00;;;;;;5023241;28;20236;-80
2023/07/09 03:03:53;;;;;;;3.35;2.40;;;16.40;99.00;;;;;;5017376;28;20249;-79
2023/07/09 03:06:20;;;;;;;2.85;2.40;;;16.40;99.10;;;;;;5027449;28;20309;-79
2023/07/09 03:08:47;;;;;;;3.47;2.58;;;16.40;99.00;;;;;;5026921;28;20219;-80
2023/07/09 03:11:15;;;;;;;3.58;2.55;;;16.30;99.10;;;;;;5024342;28;20803;-80
2023/07/09 03:13:42;;;;;;;4.20;2.80;;;16.30;99.10;;;;;;5041685;28;20872;-80
2023/07/09 03:16:09;;;;;;;4.53;2.47;;;16.30;99.10;;;;;;5028419;28;20635;-78
2023/07/09 03:18:36;;;;;;;3.58;2.47;;;16.30;99.10;;;;;;5026844;28;20878;-80
2023/07/09 03:21:05;;;;;;;3.20;2.40;;;16.30;99.10;;;;;;5025300;28;20225;-80
2023/07/09 03:23:32;;;;;;;5.35;2.50;;;16.30;99.30;;;;;;5025787;28;20788;-79
2023/07/09 03:25:59;;;;;;;4.20;2.78;;;16.30;99.20;;;;;;5025207;28;20606;-80
2023/07/09 03:28:27;;;;;;;4.72;2.90;;;16.30;99.20;;;;;;5025626;28;20979;-79
2023/07/09 03:30:56;;;;;;;3.95;2.65;;;16.30;99.20;;;;;;5027169;28;20225;-81
2023/07/09 03:33:23;;;;;;;3.83;2.38;;;16.30;99.20;;;;;;5024483;28;20778;-81
2023/07/09 03:35:51;;;;;;;2.50;2.30;;;16.30;99.30;;;;;;5022595;28;20290;-81
2023/07/09 03:38:19;;;;;;;3.33;2.45;;;16.30;99.20;;;;;;5019976;28;20225;-80
2023/07/09 03:40:46;;;;;;;3.28;2.15;;;16.30;99.30;;;;;;5020475;28;20236;-80
2023/07/09 03:43:13;;;;;;;3.90;2.42;;;16.30;99.30;;;;;;5022732;28;20573;-80
2023/07/09 03:45:40;;;;;;;4.85;2.53;;;16.30;99.10;;;;;;5031020;28;20266;-80
2023/07/09 03:48:07;;;;;;;4.00;2.63;;;16.30;99.20;;;;;;5022735;28;20221;-80
2023/07/09 03:50:34;;;;;;;3.08;2.47;;;16.30;99.00;;;;;;5024915;28;20216;-80
2023/07/09 03:53:01;;;;;;;3.65;2.60;;;16.40;99.10;;;;;;5027003;28;20256;-80
2023/07/09 03:55:29;;;;;;;3.17;2.50;;;16.40;99.00;;;;;;5020242;28;20232;-80
2023/07/09 03:57:56;;;;;;;3.42;2.22;;;16.40;99.10;;;;;;5022892;28;20284;-80
2023/07/09 04:00:23;;;;;;;3.60;2.35;;;16.40;98.90;;;;;;5027612;28;20312;-79
2023/07/09 04:02:50;;;;;;;3.95;2.45;;;16.50;98.90;;;;;;5027564;28;20898;-80
2023/07/09 04:05:17;;;;;;;2.85;2.00;;;16.50;98.80;;;;;;5026010;28;20703;-81
2023/07/09 04:07:44;;;;;;;2.97;2.20;;;16.50;98.80;;;;;;5024291;28;20235;-79
2023/07/09 04:10:11;;;;;;;2.90;2.40;;;16.60;98.80;;;;;;5017244;28;20227;-80
2023/07/09 04:12:39;;;;;;;4.93;2.65;;;16.60;98.80;;;;;;5019974;28;20214;-80
2023/07/09 04:15:07;;;;;;;3.17;2.42;;;16.60;98.70;;;;;;5024848;28;20220;-80
2023/07/09 04:17:34;;;;;;;4.55;2.70;;;16.60;98.60;;;;;;5024367;28;20227;-80
2023/07/09 04:20:00;;;;;;;3.13;2.35;;;16.70;98.70;;;;;;5022850;28;20248;-80
2023/07/09 04:22:27;;;;;;;3.58;2.63;;;16.70;98.70;;;;;;5019276;28;20231;-80
2023/07/09 04:24:54;;;;;;;4.43;2.40;;;16.70;99.00;;;;;;5025023;28;20912;-80
2023/07/09 04:27:21;;;;;;;4.65;2.55;;;16.70;98.70;;;;;;5025857;28;20312;-81
2023/07/09 04:29:50;;;;;;;2.80;2.20;;;16.80;98.60;;;;;;5031465;28;20239;-82
2023/07/09 04:32:17;;;;;;;4.10;2.78;;;16.90;98.60;;;;;;5029317;28;20245;-81
2023/07/09 04:34:44;;;;;;;3.67;2.35;;;16.80;98.50;;;;;;5028846;28;20245;-81
2023/07/09 04:37:12;;;;;;;3.40;2.42;;;16.80;98.50;;;;;;5027218;28;20229;-81
2023/07/09 04:39:40;;;;;;;3.33;2.17;;;16.90;98.50;;;;;;5028662;28;20277;-80
2023/07/09 04:42:12;;;;;;;3.47;2.35;;;16.90;98.50;;;;;;5023883;28;20701;-81
2023/07/09 04:44:39;;;;;;;3.40;2.35;;;16.90;99.00;;;;;;5038943;28;20659;-80
2023/07/09 04:47:08;;;;;;;2.92;2.35;;;16.90;98.70;;;;;;5027822;28;20750;-80
2023/07/09 04:49:35;;;;;;;5.45;2.55;;;16.90;98.70;;;;;;5023212;28;20320;-81
2023/07/09 04:52:03;;;;;;;4.00;2.60;;;16.90;98.70;;;;;;5028013;28;20282;-82
2023/07/09 04:54:30;;;;;;;3.53;2.65;;;16.80;98.70;;;;;;5027091;28;20645;-82
2023/07/09 04:56:58;;;;;;;5.38;2.80;;;16.90;98.70;;;;;;5025183;28;20218;-82
2023/07/09 04:59:25;;;;;;;3.30;2.55;;;16.90;98.80;;;;;;5028193;28;20221;-82
2023/07/09 05:01:52;;;;;;;3.97;2.80;;;17.00;98.80;;;;;;5031003;28;20225;-84
2023/07/09 05:04:20;;;;;;;3.28;2.75;;;17.00;99.00;;;;;;5023764;28;20220;-82
2023/07/09 05:06:47;;;;;;;4.10;2.47;;;17.00;99.00;;;;;;5027716;28;20911;-81
2023/07/09 05:09:14;;;;;;;3.25;2.50;;;17.00;98.80;;;;;;5025523;28;20251;-81
2023/07/09 05:11:41;;;;;;;2.90;2.60;;;17.10;98.90;;;;;;5025353;28;20232;-82
2023/07/09 05:14:08;;;;;;;4.43;2.47;;;17.10;98.90;;;;;;5028575;28;20229;-81
2023/07/09 05:16:35;;;;;;;5.65;2.70;;;17.20;98.90;;;;;;5029139;28;20253;-81
2023/07/09 05:19:02;;;;;;;3.00;2.25;;;17.30;99.00;;;;;;5029957;28;20916;-81
2023/07/09 05:21:30;;;;;;;3.45;2.50;;;17.30;98.90;;;;;;5032181;28;20869;-81
2023/07/09 05:23:57;;;;;;;3.80;2.53;;;17.30;99.10;;;;;;5026946;28;20612;-81
2023/07/09 05:26:24;;;;;;;3.00;2.15;;;17.50;99.00;;;;;;5028174;28;20233;-81
2023/07/09 05:28:51;;;;;;;3.20;2.22;;;17.50;98.80;;;;;;5025203;28;20224;-80
2023/07/09 05:31:18;;;;;;;3.42;2.60;;;17.60;98.80;;;;;;5028341;28;20715;-82
2023/07/09 05:33:45;;;;;;;5.65;2.72;;;17.60;98.70;;;;;;5029079;28;20278;-81
2023/07/09 05:36:15;;;;;;;3.60;2.58;;;17.70;98.60;;;;;;5030934;28;20239;-82
2023/07/09 05:38:43;;;;;;;3.17;2.45;;;17.70;98.50;;;;;;5029064;28;20220;-82
2023/07/09 05:41:11;;;;;;;4.75;2.60;;;17.80;98.60;;;;;;5029701;28;20221;-81
2023/07/09 05:43:38;;;;;;;3.47;2.35;;;17.90;98.40;;;;;;5032133;28;20224;-83
2023/07/09 05:46:06;;;;;;;4.50;2.53;;;18.00;98.30;;;;;;5029406;28;20228;-81
2023/07/09 05:48:33;;;;;;;3.60;2.80;;;18.10;98.40;;;;;;5030479;28;20331;-83
2023/07/09 05:51:00;;;;;;;4.20;3.05;;;18.10;98.40;;;;;;5027392;28;20267;-84
2023/07/09 05:53:27;;;;;;;3.78;2.80;;;18.20;98.20;;;;;;5026550;28;20773;-83
2023/07/09 05:55:55;;;;;;;3.63;2.72;;;18.30;98.20;;;;;;5023609;28;20232;-84
2023/07/09 05:58:22;;;;;;;4.35;2.30;;;18.40;98.00;;;;;;5025841;28;20596;-83
2023/07/09 06:00:53;;;;;;;3.78;2.58;;;18.50;98.00;;;;;;5018803;28;20229;-84
2023/07/09 06:03:21;;;;;;;3.80;2.88;;;18.60;98.10;;;;;;5010460;28;20315;-83
2023/07/09 06:05:49;;;;;;;4.43;2.85;;;18.60;98.10;;;;;;5025756;28;20212;-83
2023/07/09 06:08:16;;;;;;;3.40;2.58;;;18.80;98.00;;;;;;5029441;28;20675;-83
2023/07/09 06:10:51;;;;;;;3.67;2.65;;;18.90;98.10;;;;;;5027675;28;20228;-84
2023/07/09 06:13:20;;;;;;;5.13;2.80;;;19.00;98.00;;;;;;5028854;28;20228;-83
2023/07/09 06:15:47;;;;;;;6.38;2.75;;;19.10;97.90;;;;;;5019896;28;20233;-83
2023/07/09 06:18:14;;;;;;;3.72;3.00;;;19.20;98.00;;;;;;5028425;28;20221;-83
2023/07/09 06:20:40;;;;;;;4.22;2.45;;;19.40;97.70;;;;;;5026210;28;20245;-83
2023/07/09 06:23:07;;;;;;;3.15;2.70;;;19.40;97.60;;;;;;5024714;28;20228;-83
2023/07/09 06:25:34;;;;;;;3.30;2.90;;;19.60;97.70;;;;;;5025080;28;20224;-83
2023/07/09 06:28:01;;;;;;;4.40;3.25;;;19.70;97.50;;;;;;5026519;28;20229;-83
2023/07/09 06:30:29;;;;;;;3.92;2.80;;;19.90;97.50;;;;;;5034517;28;20221;-84
2023/07/09 06:32:57;;;;;;;3.70;2.72;;;20.00;96.90;;;;;;5041477;23;20229;-94
2023/07/09 06:35:24;;;;;;;3.53;2.58;;;20.20;96.70;;;;;;5015799;28;20234;-95
2023/07/09 06:37:51;;;;;;;3.30;2.80;;;20.50;96.70;;;;;;5013569;28;20206;-96
2023/07/09 06:40:18;;;;;;;3.95;2.78;;;20.80;96.50;;;;;;5017417;28;20217;-96
2023/07/09 06:42:45;;;;;;;3.05;2.58;;;21.10;96.20;;;;;;5014595;28;20202;-94
2023/07/09 06:45:24;;;;;;;3.25;2.75;;;21.50;95.60;;;;;;5021258;28;20244;-95
2023/07/09 06:47:53;;;;;;;4.18;2.72;;;21.80;95.50;;;;;;5016218;28;20224;-94
2023/07/09 06:50:21;;;;;;;3.97;2.67;;;22.20;95.10;;;;;;5015079;28;20214;-95
2023/07/09 06:52:53;;;;;;;3.72;2.58;;;22.30;94.90;;;;;;5010307;28;20221;-95
2023/07/09 06:55:20;;;;;;;3.55;3.13;;;22.60;94.30;;;;;;5010845;28;20213;-95
2023/07/09 06:57:47;;;;;;;3.80;2.42;;;22.80;94.00;;;;;;5015211;28;20201;-96
2023/07/09 07:00:15;;;;;;;3.65;2.75;;;22.90;93.40;;;;;;5025453;23;20312;-81
2023/07/09 07:02:41;;;;;;;3.38;2.88;;;23.00;92.70;;;;;;4984411;28;20225;-80
2023/07/09 07:05:09;;;;;;;3.47;2.78;;;23.20;93.20;;;;;;5007650;28;20217;-80
2023/07/09 07:07:36;;;;;;;2.92;2.65;;;23.30;92.30;;;;;;5007671;28;20230;-80
2023/07/09 07:10:03;;;;;;;4.93;2.88;;;23.50;92.30;;;;;;5008800;28;20225;-83
2023/07/09 07:12:44;;;;;;;3.50;2.55;;;23.80;92.80;;;;;;5007579;28;20225;-82
2023/07/09 07:15:12;;;;;;;6.22;2.90;;;24.30;91.40;;;;;;5007951;28;20228;-79
2023/07/09 07:17:38;;;;;;;3.28;2.72;;;24.80;90.80;;;;;;5027498;28;20216;-80
2023/07/09 07:20:06;;;;;;;3.88;2.67;;;25.30;91.00;;;;;;4993465;28;20328;-79
2023/07/09 07:22:34;;;;;;;4.03;3.15;;;25.90;87.70;;;;;;5012240;28;20220;-77
2023/07/09 07:25:01;;;;;;;4.03;2.97;;;26.40;85.70;;;;;;4994182;28;20225;-77
2023/07/09 07:27:27;;;;;;;3.38;2.65;;;27.00;86.60;;;;;;5009130;28;20234;-78
2023/07/09 07:29:54;;;;;;;3.40;2.72;;;27.50;85.00;;;;;;5005174;28;20304;-78
2023/07/09 07:32:21;;;;;;;3.78;2.75;;;28.10;83.40;;;;;;5007379;28;20225;-78
2023/07/09 07:34:48;;;;;;;2.90;2.60;;;28.70;82.50;;;;;;5004481;28;20232;-78
2023/07/09 07:37:15;;;;;;;3.17;2.78;;;29.30;79.50;;;;;;5004058;28;20226;-78
2023/07/09 07:39:43;;;;;;;4.35;2.55;;;29.90;78.30;;;;;;4989155;28;20217;-78
2023/07/09 07:42:10;;;;;;;3.47;2.95;;;30.50;75.30;;;;;;5008126;28;20225;-78
2023/07/09 07:44:37;;;;;;;3.08;2.78;;;31.00;74.00;;;;;;4986147;28;20226;-78
2023/07/09 07:47:04;;;;;;;3.50;2.97;;;31.50;72.10;;;;;;5003532;28;20239;-79
2023/07/09 07:49:31;;;;;;;4.18;2.80;;;32.00;68.20;;;;;;4987360;28;20225;-80
2023/07/09 07:51:57;;;;;;;5.82;2.90;;;32.40;67.90;;;;;;4986050;28;20263;-80
2023/07/09 07:54:24;;;;;;;2.85;2.53;;;32.80;66.50;;;;;;5003054;28;20253;-79
2023/07/09 07:56:52;;;;;;;3.13;2.83;;;33.00;64.70;;;;;;5003639;28;20282;-79
2023/07/09 07:59:19;;;;;;;4.75;3.00;;;33.30;63.10;;;;;;4998553;28;20236;-79
2023/07/09 08:01:45;;;;;;;3.00;2.55;;;33.60;61.50;;;;;;5005885;28;20642;-80
2023/07/09 08:04:12;;;;;;;3.70;2.45;;;33.80;61.40;;;;;;4985485;28;20618;-78
2023/07/09 08:06:39;;;;;;;4.80;3.17;;;34.00;60.70;;;;;;5020950;28;20332;-76
2023/07/09 08:09:06;;;;;;;5.05;3.20;;;34.30;59.90;;;;;;4996481;28;20226;-76
2023/07/09 08:11:33;;;;;;;6.47;2.88;;;34.50;59.50;;;;;;4991936;28;20688;-77
2023/07/09 08:14:01;;;;;;;3.67;2.95;;;34.90;58.50;;;;;;4992997;28;20226;-77
2023/07/09 08:16:28;;;;;;;3.17;2.72;;;35.20;55.90;;;;;;4999365;28;20234;-77
2023/07/09 08:18:55;;;;;;;5.93;3.17;;;35.40;55.80;;;;;;5004324;28;20308;-77
2023/07/09 08:21:22;;;;;;;3.58;3.00;;;35.60;55.70;;;;;;5007098;28;20237;-77
2023/07/09 08:23:49;;;;;;;3.15;2.85;;;35.80;55.30;;;;;;5005168;28;20236;-77
2023/07/09 08:26:16;;;;;;;3.65;2.92;;;35.90;54.30;;;;;;5005552;28;20227;-77
2023/07/09 08:28:43;;;;;;;3.60;2.78;;;36.20;53.90;;;;;;4985116;28;20714;-77
2023/07/09 08:31:11;;;;;;;7.10;3.28;;;36.20;52.30;;;;;;5001354;28;20655;-78
2023/07/09 08:33:39;;;;;;;4.32;2.83;;;36.30;52.10;;;;;;4989797;28;20229;-78
2023/07/09 08:36:06;;;;;;;3.75;2.92;;;36.30;52.20;;;;;;5006360;28;20280;-77
2023/07/09 08:38:33;;;;;;;3.72;2.85;;;36.40;52.30;;;;;;5000907;28;20225;-77
2023/07/09 08:41:02;;;;;;;6.03;2.85;;;36.50;52.40;;;;;;5002877;28;20228;-77
2023/07/09 08:43:40;;;;;;;4.70;3.30;;;36.70;51.60;;;;;;4987204;28;21767;-77
2023/07/09 08:46:17;;;;;;;3.03;2.72;;;37.00;51.10;;;;;;4996512;28;20213;-77
2023/07/09 08:48:46;;;;;;;3.80;3.38;;;37.30;50.70;;;;;;5004017;28;20332;-77
2023/07/09 08:51:17;;;;;;;4.47;2.97;;;37.60;50.10;;;;;;5010931;28;20227;-77
2023/07/09 08:53:49;;;;;;;3.50;3.08;;;37.80;49.40;;;;;;5003959;28;20228;-78
2023/07/09 08:56:18;;;;;;;4.20;3.20;;;38.00;49.00;;;;;;5002479;28;20715;-78
2023/07/09 08:58:47;;;;;;;3.13;2.92;;;38.10;48.90;;;;;;5005069;28;20287;-77
2023/07/09 09:01:20;;;;;;;4.47;3.38;;;38.40;48.70;;;;;;5001573;28;20233;-77
2023/07/09 09:03:50;;;;;;;3.20;3.00;;;38.50;47.90;;;;;;5001378;28;20280;-77
2023/07/09 09:06:20;;;;;;;4.07;3.00;;;38.70;48.00;;;;;;5000310;28;20217;-78
2023/07/09 09:08:58;;;;;;;4.90;3.00;;;38.90;47.50;;;;;;5012815;28;20222;-77
2023/07/09 09:11:33;;;;;;;4.18;3.03;;;39.00;44.70;;;;;;4994098;28;20737;-78
2023/07/09 09:14:06;;;;;;;5.32;3.20;;;38.90;44.50;;;;;;5005413;28;20654;-79
2023/07/09 09:16:39;;;;;;;4.03;3.30;;;38.80;45.70;;;;;;5003475;28;20320;-79
2023/07/09 09:19:19;;;;;;;4.80;3.05;;;38.70;45.30;;;;;;5008436;28;20247;-78
2023/07/09 09:21:46;;;;;;;4.40;3.30;;;38.60;45.40;;;;;;4999670;28;20308;-78
2023/07/09 09:24:17;;;;;;;4.25;3.30;;;38.60;46.10;;;;;;4997115;28;20232;-78
2023/07/09 09:26:44;;;;;;;3.40;3.10;;;38.70;46.10;;;;;;5006215;28;20661;-79
2023/07/09 09:29:13;;;;;;;6.13;3.47;;;38.90;46.00;;;;;;5005350;28;20235;-79
2023/07/09 09:31:43;;;;;;;4.15;3.25;;;39.00;45.30;;;;;;5006878;28;20737;-78
2023/07/09 09:34:18;;;;;;;4.38;3.25;;;39.10;45.40;;;;;;4982134;28;20416;-78
2023/07/09 09:36:45;;;;;;;4.68;3.47;;;39.30;45.60;;;;;;5000920;28;20225;-78
2023/07/09 09:39:12;;;;;;;3.70;3.08;;;39.40;45.10;;;;;;5003395;28;20229;-78
2023/07/09 09:41:40;;;;;;;4.40;3.53;;;39.50;45.30;;;;;;4995204;28;20412;-78
2023/07/09 09:44:17;;;;;;;5.47;3.33;;;39.40;45.10;;;;;;4990807;28;20287;-78
2023/07/09 09:46:45;;;;;;;5.70;3.33;;;39.50;44.40;;;;;;5001308;28;20317;-78
2023/07/09 09:49:12;;;;;;;3.60;3.30;;;39.50;44.90;;;;;;5002212;28;20229;-78
2023/07/09 09:51:44;;;;;;;6.35;3.05;;;39.60;44.40;;;;;;4987165;28;20313;-78
2023/07/09 09:54:17;;;;;;;3.75;3.08;;;39.70;44.60;;;;;;5002759;28;20316;-78
2023/07/09 09:56:44;;;;;;;4.78;3.30;;;39.80;44.50;;;;;;4997727;28;20237;-78
2023/07/09 09:59:18;;;;;;;4.00;3.22;;;39.90;44.40;;;;;;5002784;28;20941;-78
2023/07/09 10:01:46;;;;;;;3.38;3.08;;;40.00;43.90;;;;;;5000528;28;20689;-78
2023/07/09 10:04:18;;;;;;;3.22;2.97;;;40.20;43.80;;;;;;4998271;28;20226;-78
2023/07/09 10:06:47;;;;;;;3.60;3.00;;;40.30;43.40;;;;;;4999067;28;20726;-78
2023/07/09 10:09:24;;;;;;;3.88;3.33;;;40.50;43.50;;;;;;5003599;28;20269;-78
2023/07/09 10:11:58;;;;;;;4.80;3.20;;;40.60;43.50;;;;;;4982222;28;20243;-78
2023/07/09 10:14:33;;;;;;;4.60;3.00;;;40.70;43.00;;;;;;4998004;28;20408;-78
2023/07/09 10:17:10;;;;;;;3.60;3.30;;;40.80;42.40;;;;;;5000666;28;20225;-78
2023/07/09 10:19:47;;;;;;;6.38;3.38;;;40.90;42.40;;;;;;4982861;28;20233;-78
2023/07/09 10:22:23;;;;;;;3.92;3.15;;;41.00;42.30;;;;;;4980827;28;20665;-78
2023/07/09 10:24:58;;;;;;;4.85;3.08;;;41.00;41.70;;;;;;4995005;28;20697;-78
2023/07/09 10:27:33;;;;;;;3.53;3.22;;;41.00;41.90;;;;;;5008365;28;20240;-78
2023/07/09 10:30:16;;;;;;;3.47;3.17;;;41.00;41.30;;;;;;4996374;28;20217;-78
2023/07/09 10:32:57;;;;;;;9.75;3.25;;;40.80;41.00;;;;;;4999749;28;20316;-78
2023/07/09 10:35:29;;;;;;;3.83;3.45;;;40.70;42.30;;;;;;4992268;28;20320;-78
2023/07/09 10:38:21;;;;;;;3.13;2.83;;;40.60;42.30;;;;;;4999439;28;20272;-78
2023/07/09 10:40:53;;;;;;;3.78;3.47;;;40.50;41.20;;;;;;4993950;28;20229;-79
2023/07/09 10:43:23;;;;;;;3.85;3.10;;;40.40;42.20;;;;;;4985807;28;20236;-79
2023/07/09 10:45:55;;;;;;;4.47;3.45;;;40.40;41.40;;;;;;5006703;28;20704;-79
2023/07/09 10:48:34;;;;;;;3.90;3.17;;;40.40;41.60;;;;;;4993044;28;20221;-79
2023/07/09 10:51:02;;;;;;;4.25;3.30;;;40.50;41.90;;;;;;4998657;28;20243;-79
2023/07/09 10:53:34;;;;;;;4.90;3.30;;;40.60;41.70;;;;;;4999546;28;20854;-79
2023/07/09 10:56:06;;;;;;;3.88;3.45;;;40.70;40.60;;;;;;4985388;28;20233;-79
2023/07/09 10:58:38;;;;;;;5.50;3.60;;;40.90;40.10;;;;;;5003348;28;20225;-79
2023/07/09 11:01:05;;;;;;;5.00;3.50;;;41.00;40.10;;;;;;5006304;28;20245;-79
2023/07/09 11:03:42;;;;;;;4.43;3.53;;;41.10;40.20;;;;;;5003479;28;20240;-79
2023/07/09 11:06:17;;;;;;;5.00;3.78;;;41.20;39.10;;;;;;5011942;28;20213;-79
2023/07/09 11:08:45;;;;;;;3.47;3.13;;;40.90;39.60;;;;;;5008230;28;20697;-80
2023/07/09 11:11:17;;;;;;;3.65;3.35;;;41.00;40.20;;;;;;5003096;28;20221;-79
2023/07/09 11:13:47;;;;;;;3.58;3.28;;;41.00;39.20;;;;;;5004520;28;20225;-79
2023/07/09 11:16:19;;;;;;;5.32;3.80;;;40.90;40.40;;;;;;5003734;28;20221;-79
2023/07/09 11:18:56;;;;;;;4.22;3.50;;;41.00;39.90;;;;;;5003745;28;20609;-79
2023/07/09 11:21:23;;;;;;;3.97;3.50;;;41.10;39.60;;;;;;5004365;28;20288;-79
2023/07/09 11:23:51;;;;;;;4.22;3.53;;;41.10;38.90;;;;;;4986925;28;20791;-79
2023/07/09 11:26:24;;;;;;;3.65;3.35;;;41.10;38.60;;;;;;4989224;28;20309;-79
2023/07/09 11:28:53;;;;;;;4.00;3.63;;;41.00;39.10;;;;;;5001912;28;20229;-79
2023/07/09 11:31:23;;;;;;;4.78;3.42;;;40.90;39.50;;;;;;5006351;28;20289;-79
2023/07/09 11:34:02;;;;;;;4.18;3.33;;;40.80;39.60;;;;;;5008925;28;20244;-79
2023/07/09 11:36:30;;;;;;;4.55;3.63;;;40.80;38.90;;;;;;4996072;28;20232;-78
2023/07/09 11:38:57;;;;;;;4.15;3.60;;;40.70;38.00;;;;;;5010371;28;20264;-79
2023/07/09 11:41:35;;;;;;;4.22;3.40;;;40.60;37.80;;;;;;5011045;28;20235;-78
2023/07/09 11:44:12;;;;;;;4.20;3.78;;;40.50;37.60;;;;;;4990095;28;20249;-79
2023/07/09 11:46:51;;;;;;;3.83;3.45;;;40.30;38.30;;;;;;4991480;28;20225;-79
2023/07/09 11:49:22;;;;;;;3.65;3.33;;;40.20;38.60;;;;;;5005535;28;20253;-79
2023/07/09 11:51:53;;;;;;;3.67;3.22;;;40.30;38.80;;;;;;5004343;28;20715;-78
2023/07/09 11:54:20;;;;;;;3.97;3.58;;;40.40;39.00;;;;;;5008810;28;20259;-78
2023/07/09 11:56:54;;;;;;;4.10;3.80;;;40.60;38.70;;;;;;5008359;28;20351;-79
2023/07/09 11:59:21;;;;;;;3.95;3.60;;;40.60;36.30;;;;;;5015437;28;20304;-79
2023/07/09 12:01:51;;;;;;;4.30;3.28;;;40.70;37.00;;;;;;5014880;28;20237;-79
2023/07/09 12:04:21;;;;;;;4.22;3.67;;;40.60;37.10;;;;;;5013612;28;20320;-79
2023/07/09 12:06:48;;;;;;;5.90;3.63;;;40.70;37.30;;;;;;4981003;28;20228;-79
2023/07/09 12:09:18;;;;;;;4.32;3.55;;;40.80;37.30;;;;;;5009308;28;20799;-79
2023/07/09 12:11:47;;;;;;;4.68;3.60;;;40.70;37.70;;;;;;5006542;28;20308;-79
2023/07/09 12:14:15;;;;;;;5.90;3.50;;;40.90;38.00;;;;;;4990037;28;20741;-78
2023/07/09 12:16:45;;;;;;;3.75;3.42;;;40.90;37.70;;;;;;5027420;28;20225;-79
2023/07/09 12:19:12;;;;;;;4.68;3.60;;;40.90;36.80;;;;;;5022148;28;20744;-79
2023/07/09 12:21:44;;;;;;;4.43;3.80;;;40.80;37.00;;;;;;5010681;28;20235;-79
2023/07/09 12:24:21;;;;;;;7.00;4.40;;;40.60;35.60;;;;;;5001674;28;20218;-80
2023/07/09 12:26:52;;;;;;;4.30;3.90;;;40.40;35.50;;;;;;5004871;28;20283;-78
2023/07/09 12:29:18;;;;;;;4.65;4.20;;;40.20;35.90;;;;;;4991195;28;20248;-78
2023/07/09 12:31:45;;;;;;;4.25;3.85;;;39.90;35.70;;;;;;5007373;28;20244;-78
2023/07/09 12:34:14;;;;;;;4.63;4.15;;;39.70;35.90;;;;;;4988201;28;20692;-78
2023/07/09 12:36:47;;;;;;;4.60;4.07;;;39.50;36.10;;;;;;4991306;28;20577;-78
2023/07/09 12:39:16;;;;;;;5.03;3.75;;;39.40;36.00;;;;;;5005367;28;20305;-78
2023/07/09 12:41:43;;;;;;;4.20;3.80;;;39.40;36.40;;;;;;4994827;28;20221;-78
2023/07/09 12:44:17;;;;;;;4.63;3.97;;;39.40;36.20;;;;;;4992189;28;20236;-77
2023/07/09 12:46:45;;;;;;;8.05;4.07;;;39.40;36.70;;;;;;4986836;28;20887;-78
2023/07/09 12:49:24;;;;;;;9.38;4.22;;;39.40;36.70;;;;;;5006683;28;20227;-78
2023/07/09 12:51:54;;;;;;;4.90;3.95;;;39.20;37.50;;;;;;5008577;28;20822;-78
2023/07/09 12:54:22;;;;;;;4.40;4.00;;;39.20;37.10;;;;;;5008356;28;20297;-77
2023/07/09 12:56:52;;;;;;;5.13;4.05;;;39.20;36.30;;;;;;4989044;28;20234;-78
2023/07/09 12:59:21;;;;;;;4.03;3.70;;;39.10;37.00;;;;;;5005227;28;20295;-78